sensor_id;sensor_type;location;lat;lon;timestamp;temperature;humidity
62339;DHT22;48368;53.406;6.214;2022-09-01T00:00:59;16.50;99.90
62339;DHT22;48368;53.406;6.214;2022-09-01T00:03:25;16.40;99.90
62339;DHT22;48368;53.406;6.214;2022-09-01T00:05:52;16.50;99.90
62339;DHT22;48368;53.406;6.214;2022-09-01T00:08:20;16.40;99.90
62339;DHT22;48368;53.406;6.214;2022-09-01T00:10:46;16.40;99.90
62339;DHT22;48368;53.406;6.214;2022-09-01T00:13:12;16.40;99.90
62339;DHT22;48368;53.406;6.214;2022-09-01T00:15:38;16.30;99.90
62339;DHT22;48368;53.406;6.214;2022-09-01T00:18:03;16.30;99.90
62339;DHT22;48368;53.406;6.214;2022-09-01T00:20:29;16.30;99.90
62339;DHT22;48368;53.406;6.214;2022-09-01T00:22:55;16.30;99.90
62339;DHT22;48368;53.406;6.214;2022-09-01T00:25:21;16.20;99.90
62339;DHT22;48368;53.406;6.214;2022-09-01T00:27:48;16.20;99.90
62339;DHT22;48368;53.406;6.214;2022-09-01T00:30:14;16.10;99.90
62339;DHT22;48368;53.406;6.214;2022-09-01T00:32:39;16.10;99.90
62339;DHT22;48368;53.406;6.214;2022-09-01T00:35:05;16.10;99.90
62339;DHT22;48368;53.406;6.214;2022-09-01T00:37:33;16.10;99.90
62339;DHT22;48368;53.406;6.214;2022-09-01T00:39:58;16.00;99.90
62339;DHT22;48368;53.406;6.214;2022-09-01T00:42:24;16.00;99.90
62339;DHT22;48368;53.406;6.214;2022-09-01T00:44:50;16.00;99.90
62339;DHT22;48368;53.406;6.214;2022-09-01T00:47:15;16.00;99.90
62339;DHT22;48368;53.406;6.214;2022-09-01T00:49:44;16.00;99.90
62339;DHT22;48368;53.406;6.214;2022-09-01T00:52:21;16.00;99.90
62339;DHT22;48368;53.406;6.214;2022-09-01T00:54:53;15.90;99.90
62339;DHT22;48368;53.406;6.214;2022-09-01T00:57:22;15.90;99.90
62339;DHT22;48368;53.406;6.214;2022-09-01T00:59:54;15.90;99.90
62339;DHT22;48368;53.406;6.214;2022-09-01T01:02:21;15.80;99.90
62339;DHT22;48368;53.406;6.214;2022-09-01T01:04:47;15.80;99.90
62339;DHT22;48368;53.406;6.214;2022-09-01T01:07:13;15.80;99.90
62339;DHT22;48368;53.406;6.214;2022-09-01T01:09:42;15.80;99.90
62339;DHT22;48368;53.406;6.214;2022-09-01T01:12:09;15.70;99.90
62339;DHT22;48368;53.406;6.214;2022-09-01T01:14:46;15.70;99.90
62339;DHT22;48368;53.406;6.214;2022-09-01T01:17:15;15.70;99.90
62339;DHT22;48368;53.406;6.214;2022-09-01T01:19:55;15.60;99.90
62339;DHT22;48368;53.406;6.214;2022-09-01T01:25:42;15.60;99.90
62339;DHT22;48368;53.406;6.214;2022-09-01T01:28:26;15.60;99.90
62339;DHT22;48368;53.406;6.214;2022-09-01T01:31:07;15.60;99.90
62339;DHT22;48368;53.406;6.214;2022-09-01T01:36:11;15.50;99.90
62339;DHT22;48368;53.406;6.214;2022-09-01T01:38:42;15.50;99.90
62339;DHT22;48368;53.406;6.214;2022-09-01T01:41:10;15.50;99.90
62339;DHT22;48368;53.406;6.214;2022-09-01T01:43:37;15.50;99.90
62339;DHT22;48368;53.406;6.214;2022-09-01T01:46:04;15.50;99.90
62339;DHT22;48368;53.406;6.214;2022-09-01T01:48:33;15.50;99.90
62339;DHT22;48368;53.406;6.214;2022-09-01T01:51:02;15.50;99.90
62339;DHT22;48368;53.406;6.214;2022-09-01T01:53:29;15.50;99.90
62339;DHT22;48368;53.406;6.214;2022-09-01T01:55:55;15.50;99.90
62339;DHT22;48368;53.406;6.214;2022-09-01T01:58:25;15.50;99.90
62339;DHT22;48368;53.406;6.214;2022-09-01T02:00:52;15.60;99.90
62339;DHT22;48368;53.406;6.214;2022-09-01T02:03:21;15.60;99.90
62339;DHT22;48368;53.406;6.214;2022-09-01T02:05:49;15.60;99.90
62339;DHT22;48368;53.406;6.214;2022-09-01T02:08:16;15.60;99.90
62339;DHT22;48368;53.406;6.214;2022-09-01T02:10:48;15.70;99.90
62339;DHT22;48368;53.406;6.214;2022-09-01T02:13:17;15.60;99.90
62339;DHT22;48368;53.406;6.214;2022-09-01T02:15:46;15.60;99.90
62339;DHT22;48368;53.406;6.214;2022-09-01T02:18:18;15.60;99.90
62339;DHT22;48368;53.406;6.214;2022-09-01T02:20:46;15.70;99.90
62339;DHT22;48368;53.406;6.214;2022-09-01T02:23:14;15.70;99.90
62339;DHT22;48368;53.406;6.214;2022-09-01T02:25:43;15.60;99.90
62339;DHT22;48368;53.406;6.214;2022-09-01T02:28:14;15.70;99.90
62339;DHT22;48368;53.406;6.214;2022-09-01T02:30:46;15.70;99.90
62339;DHT22;48368;53.406;6.214;2022-09-01T02:33:15;15.70;99.90
62339;DHT22;48368;53.406;6.214;2022-09-01T02:35:53;15.70;99.90
62339;DHT22;48368;53.406;6.214;2022-09-01T02:38:19;15.80;99.90
62339;DHT22;48368;53.406;6.214;2022-09-01T02:40:47;15.80;99.90
62339;DHT22;48368;53.406;6.214;2022-09-01T02:43:15;15.80;99.90
62339;DHT22;48368;53.406;6.214;2022-09-01T02:45:44;15.80;99.90
62339;DHT22;48368;53.406;6.214;2022-09-01T02:48:12;15.80;99.90
62339;DHT22;48368;53.406;6.214;2022-09-01T02:50:40;15.80;99.90
62339;DHT22;48368;53.406;6.214;2022-09-01T02:53:07;15.90;99.90
62339;DHT22;48368;53.406;6.214;2022-09-01T02:55:41;15.90;99.90
62339;DHT22;48368;53.406;6.214;2022-09-01T02:58:08;15.90;99.90
62339;DHT22;48368;53.406;6.214;2022-09-01T03:00:41;15.90;99.90
62339;DHT22;48368;53.406;6.214;2022-09-01T03:03:08;15.90;99.90
62339;DHT22;48368;53.406;6.214;2022-09-01T03:05:34;15.90;99.90
62339;DHT22;48368;53.406;6.214;2022-09-01T03:08:09;15.90;99.90
62339;DHT22;48368;53.406;6.214;2022-09-01T03:10:38;15.80;99.90
62339;DHT22;48368;53.406;6.214;2022-09-01T03:13:17;15.90;99.90
62339;DHT22;48368;53.406;6.214;2022-09-01T03:15:44;15.90;99.90
62339;DHT22;48368;53.406;6.214;2022-09-01T03:18:12;15.90;99.90
62339;DHT22;48368;53.406;6.214;2022-09-01T03:20:39;15.90;99.90
62339;DHT22;48368;53.406;6.214;2022-09-01T03:23:10;15.90;99.90
62339;DHT22;48368;53.406;6.214;2022-09-01T03:25:40;16.00;99.90
62339;DHT22;48368;53.406;6.214;2022-09-01T03:28:05;15.90;99.90
62339;DHT22;48368;53.406;6.214;2022-09-01T03:30:33;15.90;99.90
62339;DHT22;48368;53.406;6.214;2022-09-01T03:33:01;15.90;99.90
62339;DHT22;48368;53.406;6.214;2022-09-01T03:35:28;15.90;99.90
62339;DHT22;48368;53.406;6.214;2022-09-01T03:37:57;15.90;99.90
62339;DHT22;48368;53.406;6.214;2022-09-01T03:40:28;15.80;99.90
62339;DHT22;48368;53.406;6.214;2022-09-01T03:42:58;15.80;99.90
62339;DHT22;48368;53.406;6.214;2022-09-01T03:45:23;15.80;99.90
62339;DHT22;48368;53.406;6.214;2022-09-01T03:47:52;15.70;99.90
62339;DHT22;48368;53.406;6.214;2022-09-01T03:50:21;15.70;99.90
62339;DHT22;48368;53.406;6.214;2022-09-01T03:52:53;15.60;99.90
62339;DHT22;48368;53.406;6.214;2022-09-01T03:55:22;15.60;99.90
62339;DHT22;48368;53.406;6.214;2022-09-01T03:57:56;15.70;99.90
62339;DHT22;48368;53.406;6.214;2022-09-01T04:00:24;15.60;99.90
62339;DHT22;48368;53.406;6.214;2022-09-01T04:02:55;15.60;99.90
62339;DHT22;48368;53.406;6.214;2022-09-01T04:05:27;15.50;99.90
62339;DHT22;48368;53.406;6.214;2022-09-01T04:07:58;15.50;99.90
62339;DHT22;48368;53.406;6.214;2022-09-01T04:10:26;15.50;99.90
62339;DHT22;48368;53.406;6.214;2022-09-01T04:12:52;15.40;99.90
62339;DHT22;48368;53.406;6.214;2022-09-01T04:15:20;15.40;99.90
62339;DHT22;48368;53.406;6.214;2022-09-01T04:17:46;15.40;99.90
62339;DHT22;48368;53.406;6.214;2022-09-01T04:20:31;15.40;99.90
62339;DHT22;48368;53.406;6.214;2022-09-01T04:23:06;15.30;99.90
62339;DHT22;48368;53.406;6.214;2022-09-01T04:25:36;15.30;99.90
62339;DHT22;48368;53.406;6.214;2022-09-01T04:28:04;15.20;99.90
62339;DHT22;48368;53.406;6.214;2022-09-01T04:30:39;15.20;99.90
62339;DHT22;48368;53.406;6.214;2022-09-01T04:33:08;15.20;99.90
62339;DHT22;48368;53.406;6.214;2022-09-01T04:35:38;15.20;99.90
62339;DHT22;48368;53.406;6.214;2022-09-01T04:38:05;15.20;99.90
62339;DHT22;48368;53.406;6.214;2022-09-01T04:40:38;15.20;99.90
62339;DHT22;48368;53.406;6.214;2022-09-01T04:43:05;15.20;99.90
62339;DHT22;48368;53.406;6.214;2022-09-01T04:45:34;15.20;99.90
62339;DHT22;48368;53.406;6.214;2022-09-01T04:48:02;15.20;99.90
62339;DHT22;48368;53.406;6.214;2022-09-01T04:50:28;15.20;99.90
62339;DHT22;48368;53.406;6.214;2022-09-01T04:52:58;15.20;99.90
62339;DHT22;48368;53.406;6.214;2022-09-01T04:55:28;15.20;99.90
62339;DHT22;48368;53.406;6.214;2022-09-01T04:57:57;15.20;99.90
62339;DHT22;48368;53.406;6.214;2022-09-01T05:00:24;15.30;99.90
62339;DHT22;48368;53.406;6.214;2022-09-01T05:02:57;15.20;99.90
62339;DHT22;48368;53.406;6.214;2022-09-01T05:05:29;15.20;99.90
62339;DHT22;48368;53.406;6.214;2022-09-01T05:08:01;15.30;99.90
62339;DHT22;48368;53.406;6.214;2022-09-01T05:10:27;15.20;99.90
62339;DHT22;48368;53.406;6.214;2022-09-01T05:12:54;15.30;99.90
62339;DHT22;48368;53.406;6.214;2022-09-01T05:15:21;15.30;99.90
62339;DHT22;48368;53.406;6.214;2022-09-01T05:17:47;15.30;99.90
62339;DHT22;48368;53.406;6.214;2022-09-01T05:20:14;15.30;99.90
62339;DHT22;48368;53.406;6.214;2022-09-01T05:22:41;15.30;99.90
62339;DHT22;48368;53.406;6.214;2022-09-01T05:25:08;15.40;99.90
62339;DHT22;48368;53.406;6.214;2022-09-01T05:27:43;15.40;99.90
62339;DHT22;48368;53.406;6.214;2022-09-01T05:30:14;15.40;99.90
62339;DHT22;48368;53.406;6.214;2022-09-01T05:32:43;15.40;99.90
62339;DHT22;48368;53.406;6.214;2022-09-01T05:35:11;15.40;99.90
62339;DHT22;48368;53.406;6.214;2022-09-01T05:37:37;15.40;99.90
62339;DHT22;48368;53.406;6.214;2022-09-01T05:40:07;15.50;99.90
62339;DHT22;48368;53.406;6.214;2022-09-01T05:42:34;15.50;99.90
62339;DHT22;48368;53.406;6.214;2022-09-01T05:45:06;15.60;99.90
62339;DHT22;48368;53.406;6.214;2022-09-01T05:47:32;15.50;99.90
62339;DHT22;48368;53.406;6.214;2022-09-01T05:50:02;15.60;99.90
62339;DHT22;48368;53.406;6.214;2022-09-01T05:52:32;15.70;99.90
62339;DHT22;48368;53.406;6.214;2022-09-01T05:54:58;15.70;99.90
62339;DHT22;48368;53.406;6.214;2022-09-01T05:57:25;15.70;99.90
62339;DHT22;48368;53.406;6.214;2022-09-01T05:59:51;15.70;99.90
62339;DHT22;48368;53.406;6.214;2022-09-01T06:02:21;15.80;99.90
62339;DHT22;48368;53.406;6.214;2022-09-01T06:04:48;15.80;99.90
62339;DHT22;48368;53.406;6.214;2022-09-01T06:07:17;15.80;99.90
62339;DHT22;48368;53.406;6.214;2022-09-01T06:09:46;15.90;99.90
62339;DHT22;48368;53.406;6.214;2022-09-01T06:12:14;15.90;99.90
62339;DHT22;48368;53.406;6.214;2022-09-01T06:14:47;16.00;99.90
62339;DHT22;48368;53.406;6.214;2022-09-01T06:17:13;16.00;99.90
62339;DHT22;48368;53.406;6.214;2022-09-01T06:19:41;16.00;99.90
62339;DHT22;48368;53.406;6.214;2022-09-01T06:22:07;16.10;99.90
62339;DHT22;48368;53.406;6.214;2022-09-01T06:24:36;16.10;99.90
62339;DHT22;48368;53.406;6.214;2022-09-01T06:27:04;16.10;99.90
62339;DHT22;48368;53.406;6.214;2022-09-01T06:29:34;16.10;99.90
62339;DHT22;48368;53.406;6.214;2022-09-01T06:32:00;16.10;99.90
62339;DHT22;48368;53.406;6.214;2022-09-01T06:34:27;16.10;99.90
62339;DHT22;48368;53.406;6.214;2022-09-01T06:36:53;16.20;99.90
62339;DHT22;48368;53.406;6.214;2022-09-01T06:39:19;16.20;99.90
62339;DHT22;48368;53.406;6.214;2022-09-01T06:41:47;16.20;99.90
62339;DHT22;48368;53.406;6.214;2022-09-01T06:44:14;16.30;99.90
62339;DHT22;48368;53.406;6.214;2022-09-01T06:46:40;16.30;99.90
62339;DHT22;48368;53.406;6.214;2022-09-01T06:49:06;16.40;99.90
62339;DHT22;48368;53.406;6.214;2022-09-01T07:10:26;16.70;99.90
62339;DHT22;48368;53.406;6.214;2022-09-01T07:12:56;16.80;99.90
62339;DHT22;48368;53.406;6.214;2022-09-01T07:15:22;16.80;99.90
62339;DHT22;48368;53.406;6.214;2022-09-01T07:17:53;16.80;99.90
62339;DHT22;48368;53.406;6.214;2022-09-01T07:20:22;16.90;99.90
62339;DHT22;48368;53.406;6.214;2022-09-01T07:22:49;17.00;99.90
62339;DHT22;48368;53.406;6.214;2022-09-01T07:25:16;17.00;99.90
62339;DHT22;48368;53.406;6.214;2022-09-01T07:27:43;17.00;99.90
62339;DHT22;48368;53.406;6.214;2022-09-01T07:30:21;17.10;99.90
62339;DHT22;48368;53.406;6.214;2022-09-01T07:32:48;17.20;99.90
62339;DHT22;48368;53.406;6.214;2022-09-01T07:35:17;17.30;99.90
62339;DHT22;48368;53.406;6.214;2022-09-01T07:37:45;17.20;99.90
62339;DHT22;48368;53.406;6.214;2022-09-01T07:40:15;17.30;99.90
62339;DHT22;48368;53.406;6.214;2022-09-01T07:42:47;17.30;99.90
62339;DHT22;48368;53.406;6.214;2022-09-01T07:45:14;17.40;99.90
62339;DHT22;48368;53.406;6.214;2022-09-01T07:47:42;17.50;99.90
62339;DHT22;48368;53.406;6.214;2022-09-01T07:50:10;17.50;99.90
62339;DHT22;48368;53.406;6.214;2022-09-01T07:52:38;17.50;99.90
62339;DHT22;48368;53.406;6.214;2022-09-01T07:55:15;17.70;99.90
62339;DHT22;48368;53.406;6.214;2022-09-01T07:57:42;17.80;99.90
62339;DHT22;48368;53.406;6.214;2022-09-01T08:00:12;17.90;99.90
62339;DHT22;48368;53.406;6.214;2022-09-01T08:02:40;18.10;99.90
62339;DHT22;48368;53.406;6.214;2022-09-01T08:05:07;18.30;99.90
62339;DHT22;48368;53.406;6.214;2022-09-01T08:07:36;18.50;99.90
62339;DHT22;48368;53.406;6.214;2022-09-01T08:10:03;18.70;99.90
62339;DHT22;48368;53.406;6.214;2022-09-01T08:12:30;18.80;99.90
62339;DHT22;48368;53.406;6.214;2022-09-01T08:14:56;18.80;99.90
62339;DHT22;48368;53.406;6.214;2022-09-01T08:17:21;18.80;99.90
62339;DHT22;48368;53.406;6.214;2022-09-01T08:19:47;18.80;99.90
62339;DHT22;48368;53.406;6.214;2022-09-01T08:22:14;18.90;99.90
62339;DHT22;48368;53.406;6.214;2022-09-01T08:24:40;19.00;99.90
62339;DHT22;48368;53.406;6.214;2022-09-01T08:27:05;19.10;99.90
62339;DHT22;48368;53.406;6.214;2022-09-01T08:29:31;19.00;99.90
62339;DHT22;48368;53.406;6.214;2022-09-01T08:31:56;19.10;99.90
62339;DHT22;48368;53.406;6.214;2022-09-01T08:34:24;19.30;99.90
62339;DHT22;48368;53.406;6.214;2022-09-01T08:36:50;19.40;99.90
62339;DHT22;48368;53.406;6.214;2022-09-01T08:39:16;19.60;99.90
62339;DHT22;48368;53.406;6.214;2022-09-01T08:42:06;19.70;99.90
62339;DHT22;48368;53.406;6.214;2022-09-01T08:45:00;19.90;99.90
62339;DHT22;48368;53.406;6.214;2022-09-01T08:47:27;19.90;99.90
62339;DHT22;48368;53.406;6.214;2022-09-01T08:49:54;19.70;99.90
62339;DHT22;48368;53.406;6.214;2022-09-01T08:55:30;19.80;99.90
62339;DHT22;48368;53.406;6.214;2022-09-01T08:57:59;20.00;99.90
62339;DHT22;48368;53.406;6.214;2022-09-01T09:00:28;20.00;99.90
62339;DHT22;48368;53.406;6.214;2022-09-01T09:05:54;19.70;99.90
62339;DHT22;48368;53.406;6.214;2022-09-01T09:11:12;19.80;99.90
62339;DHT22;48368;53.406;6.214;2022-09-01T09:13:57;19.80;99.90
62339;DHT22;48368;53.406;6.214;2022-09-01T09:18:57;20.00;99.90
62339;DHT22;48368;53.406;6.214;2022-09-01T09:21:38;20.10;99.90
62339;DHT22;48368;53.406;6.214;2022-09-01T09:24:25;20.20;99.90
62339;DHT22;48368;53.406;6.214;2022-09-01T09:26:55;20.10;99.90
62339;DHT22;48368;53.406;6.214;2022-09-01T09:29:21;20.20;99.90
62339;DHT22;48368;53.406;6.214;2022-09-01T09:31:48;20.30;99.90
62339;DHT22;48368;53.406;6.214;2022-09-01T09:34:31;20.50;99.90
62339;DHT22;48368;53.406;6.214;2022-09-01T09:37:19;20.80;99.90
62339;DHT22;48368;53.406;6.214;2022-09-01T09:39:55;21.00;99.90
62339;DHT22;48368;53.406;6.214;2022-09-01T09:42:26;21.10;99.90
62339;DHT22;48368;53.406;6.214;2022-09-01T09:44:52;20.70;99.90
62339;DHT22;48368;53.406;6.214;2022-09-01T09:47:42;21.00;99.90
62339;DHT22;48368;53.406;6.214;2022-09-01T09:50:50;21.00;99.90
62339;DHT22;48368;53.406;6.214;2022-09-01T09:53:29;20.90;99.90
62339;DHT22;48368;53.406;6.214;2022-09-01T09:56:15;21.00;99.90
62339;DHT22;48368;53.406;6.214;2022-09-01T09:58:44;21.20;99.90
62339;DHT22;48368;53.406;6.214;2022-09-01T10:03:58;21.10;99.90
62339;DHT22;48368;53.406;6.214;2022-09-01T10:06:34;20.90;99.90
62339;DHT22;48368;53.406;6.214;2022-09-01T10:09:06;21.20;99.90
62339;DHT22;48368;53.406;6.214;2022-09-01T10:11:42;21.00;99.90
62339;DHT22;48368;53.406;6.214;2022-09-01T10:14:15;20.80;99.90
62339;DHT22;48368;53.406;6.214;2022-09-01T10:16:42;20.80;99.90
62339;DHT22;48368;53.406;6.214;2022-09-01T10:19:13;20.90;99.90
62339;DHT22;48368;53.406;6.214;2022-09-01T10:21:41;20.90;99.90
62339;DHT22;48368;53.406;6.214;2022-09-01T10:24:29;21.00;99.90
62339;DHT22;48368;53.406;6.214;2022-09-01T10:27:19;20.90;99.90
62339;DHT22;48368;53.406;6.214;2022-09-01T10:29:51;21.10;99.90
62339;DHT22;48368;53.406;6.214;2022-09-01T10:32:28;21.30;99.90
62339;DHT22;48368;53.406;6.214;2022-09-01T10:34:54;21.50;99.90
62339;DHT22;48368;53.406;6.214;2022-09-01T10:37:22;21.50;99.90
62339;DHT22;48368;53.406;6.214;2022-09-01T10:42:35;21.30;99.90
62339;DHT22;48368;53.406;6.214;2022-09-01T10:45:01;21.40;99.90
62339;DHT22;48368;53.406;6.214;2022-09-01T10:47:31;21.30;99.90
62339;DHT22;48368;53.406;6.214;2022-09-01T10:50:25;21.30;99.90
62339;DHT22;48368;53.406;6.214;2022-09-01T10:52:57;21.20;99.90
62339;DHT22;48368;53.406;6.214;2022-09-01T10:55:42;21.30;99.90
62339;DHT22;48368;53.406;6.214;2022-09-01T10:58:20;21.10;99.90
62339;DHT22;48368;53.406;6.214;2022-09-01T11:00:51;21.10;99.90
62339;DHT22;48368;53.406;6.214;2022-09-01T11:10:54;21.10;99.90
62339;DHT22;48368;53.406;6.214;2022-09-01T11:13:44;21.20;99.90
62339;DHT22;48368;53.406;6.214;2022-09-01T11:16:39;21.50;99.90
62339;DHT22;48368;53.406;6.214;2022-09-01T11:19:28;21.90;99.90
62339;DHT22;48368;53.406;6.214;2022-09-01T11:25:11;22.20;99.90
62339;DHT22;48368;53.406;6.214;2022-09-01T11:30:21;21.90;99.90
62339;DHT22;48368;53.406;6.214;2022-09-01T11:32:51;21.60;99.90
62339;DHT22;48368;53.406;6.214;2022-09-01T11:35:24;21.40;99.90
62339;DHT22;48368;53.406;6.214;2022-09-01T11:37:56;21.00;99.90
62339;DHT22;48368;53.406;6.214;2022-09-01T11:40:27;21.20;99.90
62339;DHT22;48368;53.406;6.214;2022-09-01T11:42:55;21.20;99.90
62339;DHT22;48368;53.406;6.214;2022-09-01T11:45:24;21.60;99.90
62339;DHT22;48368;53.406;6.214;2022-09-01T11:48:01;21.90;99.90
62339;DHT22;48368;53.406;6.214;2022-09-01T11:50:33;22.20;99.90
62339;DHT22;48368;53.406;6.214;2022-09-01T11:53:03;22.10;99.90
62339;DHT22;48368;53.406;6.214;2022-09-01T11:55:45;22.40;99.90
62339;DHT22;48368;53.406;6.214;2022-09-01T11:58:33;22.60;99.90
62339;DHT22;48368;53.406;6.214;2022-09-01T12:01:20;22.80;99.90
62339;DHT22;48368;53.406;6.214;2022-09-01T12:03:48;22.90;99.90
62339;DHT22;48368;53.406;6.214;2022-09-01T12:06:26;23.00;99.90
62339;DHT22;48368;53.406;6.214;2022-09-01T12:08:57;22.60;99.90
62339;DHT22;48368;53.406;6.214;2022-09-01T12:11:29;22.70;99.90
62339;DHT22;48368;53.406;6.214;2022-09-01T12:16:28;22.70;99.90
62339;DHT22;48368;53.406;6.214;2022-09-01T12:18:56;22.80;99.90
62339;DHT22;48368;53.406;6.214;2022-09-01T12:21:29;22.70;99.90
62339;DHT22;48368;53.406;6.214;2022-09-01T12:24:18;22.50;99.90
62339;DHT22;48368;53.406;6.214;2022-09-01T12:26:50;22.40;99.90
62339;DHT22;48368;53.406;6.214;2022-09-01T12:29:16;22.70;99.90
62339;DHT22;48368;53.406;6.214;2022-09-01T12:31:44;22.70;99.90
62339;DHT22;48368;53.406;6.214;2022-09-01T12:34:27;23.10;99.90
62339;DHT22;48368;53.406;6.214;2022-09-01T12:37:19;23.10;99.90
62339;DHT22;48368;53.406;6.214;2022-09-01T12:39:48;23.10;99.90
62339;DHT22;48368;53.406;6.214;2022-09-01T12:44:51;23.20;99.90
62339;DHT22;48368;53.406;6.214;2022-09-01T12:52:48;23.20;99.90
62339;DHT22;48368;53.406;6.214;2022-09-01T12:55:30;23.20;99.90
62339;DHT22;48368;53.406;6.214;2022-09-01T12:57:59;22.90;99.90
62339;DHT22;48368;53.406;6.214;2022-09-01T13:01:06;22.60;99.90
62339;DHT22;48368;53.406;6.214;2022-09-01T13:03:33;22.40;99.90
62339;DHT22;48368;53.406;6.214;2022-09-01T13:06:01;22.50;99.90
62339;DHT22;48368;53.406;6.214;2022-09-01T13:08:30;22.30;99.90
62339;DHT22;48368;53.406;6.214;2022-09-01T13:11:00;22.00;99.90
62339;DHT22;48368;53.406;6.214;2022-09-01T13:13:27;22.20;99.90
62339;DHT22;48368;53.406;6.214;2022-09-01T13:15:56;22.20;99.90
62339;DHT22;48368;53.406;6.214;2022-09-01T13:18:25;22.30;99.90
62339;DHT22;48368;53.406;6.214;2022-09-01T13:20:51;22.10;99.90
62339;DHT22;48368;53.406;6.214;2022-09-01T13:23:18;22.00;99.90
62339;DHT22;48368;53.406;6.214;2022-09-01T13:25:44;21.70;99.90
62339;DHT22;48368;53.406;6.214;2022-09-01T13:28:14;21.80;99.90
62339;DHT22;48368;53.406;6.214;2022-09-01T13:30:41;22.00;99.90
62339;DHT22;48368;53.406;6.214;2022-09-01T13:33:07;22.20;99.90
62339;DHT22;48368;53.406;6.214;2022-09-01T13:35:33;22.40;99.90
62339;DHT22;48368;53.406;6.214;2022-09-01T13:37:59;22.40;99.90
62339;DHT22;48368;53.406;6.214;2022-09-01T13:40:25;22.70;99.90
62339;DHT22;48368;53.406;6.214;2022-09-01T13:42:52;22.80;99.90
62339;DHT22;48368;53.406;6.214;2022-09-01T13:45:21;22.70;99.90
62339;DHT22;48368;53.406;6.214;2022-09-01T13:47:49;22.70;99.90
62339;DHT22;48368;53.406;6.214;2022-09-01T13:50:16;22.40;99.90
62339;DHT22;48368;53.406;6.214;2022-09-01T13:52:48;22.40;99.90
62339;DHT22;48368;53.406;6.214;2022-09-01T13:55:29;22.70;99.90
62339;DHT22;48368;53.406;6.214;2022-09-01T13:57:55;22.40;99.90
62339;DHT22;48368;53.406;6.214;2022-09-01T18:43:36;18.60;99.90
62339;DHT22;48368;53.406;6.214;2022-09-01T18:46:15;18.60;99.90
62339;DHT22;48368;53.406;6.214;2022-09-01T18:49:01;18.50;99.90
62339;DHT22;48368;53.406;6.214;2022-09-01T18:54:52;18.40;99.90
62339;DHT22;48368;53.406;6.214;2022-09-01T18:57:23;18.40;99.90
62339;DHT22;48368;53.406;6.214;2022-09-01T19:16:22;18.30;99.90
62339;DHT22;48368;53.406;6.214;2022-09-01T19:21:26;18.20;99.90
62339;DHT22;48368;53.406;6.214;2022-09-01T19:24:17;18.30;99.90
62339;DHT22;48368;53.406;6.214;2022-09-01T19:26:50;18.20;99.90
62339;DHT22;48368;53.406;6.214;2022-09-01T19:29:41;18.20;99.90
62339;DHT22;48368;53.406;6.214;2022-09-01T19:32:08;18.20;99.90
62339;DHT22;48368;53.406;6.214;2022-09-01T19:34:42;18.20;99.90
62339;DHT22;48368;53.406;6.214;2022-09-01T19:37:09;18.10;99.90
62339;DHT22;48368;53.406;6.214;2022-09-01T19:39:44;18.00;99.90
62339;DHT22;48368;53.406;6.214;2022-09-01T19:45:18;17.90;99.90
62339;DHT22;48368;53.406;6.214;2022-09-01T19:47:52;17.90;99.90
62339;DHT22;48368;53.406;6.214;2022-09-01T19:50:23;17.80;99.90
62339;DHT22;48368;53.406;6.214;2022-09-01T19:53:10;17.80;99.90
62339;DHT22;48368;53.406;6.214;2022-09-01T19:55:57;17.80;99.90
62339;DHT22;48368;53.406;6.214;2022-09-01T19:58:58;17.70;99.90
62339;DHT22;48368;53.406;6.214;2022-09-01T20:16:43;17.70;99.90
62339;DHT22;48368;53.406;6.214;2022-09-01T20:21:44;17.60;99.90
62339;DHT22;48368;53.406;6.214;2022-09-01T20:24:23;17.60;99.90
62339;DHT22;48368;53.406;6.214;2022-09-01T20:29:59;17.50;99.90
62339;DHT22;48368;53.406;6.214;2022-09-01T20:32:31;17.60;99.90
62339;DHT22;48368;53.406;6.214;2022-09-01T20:35:23;17.50;99.90
62339;DHT22;48368;53.406;6.214;2022-09-01T20:41:00;17.40;99.90
62339;DHT22;48368;53.406;6.214;2022-09-01T20:43:30;17.40;99.90
62339;DHT22;48368;53.406;6.214;2022-09-01T20:46:00;17.40;99.90
62339;DHT22;48368;53.406;6.214;2022-09-01T20:48:26;17.40;99.90
62339;DHT22;48368;53.406;6.214;2022-09-01T20:59:21;17.40;99.90
62339;DHT22;48368;53.406;6.214;2022-09-01T21:07:03;17.30;99.90
62339;DHT22;48368;53.406;6.214;2022-09-01T21:09:44;17.20;99.90
62339;DHT22;48368;53.406;6.214;2022-09-01T21:22:36;17.20;99.90
62339;DHT22;48368;53.406;6.214;2022-09-01T21:25:02;17.20;99.90
62339;DHT22;48368;53.406;6.214;2022-09-01T21:27:33;17.20;99.90
62339;DHT22;48368;53.406;6.214;2022-09-01T21:30:10;17.10;99.90
62339;DHT22;48368;53.406;6.214;2022-09-01T21:32:36;17.10;99.90
62339;DHT22;48368;53.406;6.214;2022-09-01T21:35:05;17.10;99.90
62339;DHT22;48368;53.406;6.214;2022-09-01T21:37:32;17.10;99.90
62339;DHT22;48368;53.406;6.214;2022-09-01T21:39:57;17.10;99.90
62339;DHT22;48368;53.406;6.214;2022-09-01T21:42:28;17.00;99.90
62339;DHT22;48368;53.406;6.214;2022-09-01T21:44:55;16.90;99.90
62339;DHT22;48368;53.406;6.214;2022-09-01T21:47:21;16.90;99.90
62339;DHT22;48368;53.406;6.214;2022-09-01T21:49:47;16.90;99.90
62339;DHT22;48368;53.406;6.214;2022-09-01T21:52:13;16.90;99.90
62339;DHT22;48368;53.406;6.214;2022-09-01T21:54:39;16.90;99.90
62339;DHT22;48368;53.406;6.214;2022-09-01T21:57:05;16.80;99.90
62339;DHT22;48368;53.406;6.214;2022-09-01T21:59:31;16.80;99.90
62339;DHT22;48368;53.406;6.214;2022-09-01T22:01:56;16.80;99.90
62339;DHT22;48368;53.406;6.214;2022-09-01T22:04:22;16.80;99.90
62339;DHT22;48368;53.406;6.214;2022-09-01T22:06:49;16.70;99.90
62339;DHT22;48368;53.406;6.214;2022-09-01T22:09:19;16.70;99.90
62339;DHT22;48368;53.406;6.214;2022-09-01T22:11:46;16.70;99.90
62339;DHT22;48368;53.406;6.214;2022-09-01T22:14:12;16.70;99.90
62339;DHT22;48368;53.406;6.214;2022-09-01T22:16:37;16.50;99.90
62339;DHT22;48368;53.406;6.214;2022-09-01T22:19:04;16.50;99.90
62339;DHT22;48368;53.406;6.214;2022-09-01T22:21:30;16.50;99.90
62339;DHT22;48368;53.406;6.214;2022-09-01T22:23:56;16.40;99.90
62339;DHT22;48368;53.406;6.214;2022-09-01T22:26:29;16.30;99.90
62339;DHT22;48368;53.406;6.214;2022-09-01T22:28:57;16.30;99.90
62339;DHT22;48368;53.406;6.214;2022-09-01T22:31:24;16.30;99.90
62339;DHT22;48368;53.406;6.214;2022-09-01T22:33:51;16.20;99.90
62339;DHT22;48368;53.406;6.214;2022-09-01T22:36:31;16.10;99.90
62339;DHT22;48368;53.406;6.214;2022-09-01T22:38:57;16.10;99.90
62339;DHT22;48368;53.406;6.214;2022-09-01T22:41:24;16.10;99.90
62339;DHT22;48368;53.406;6.214;2022-09-01T22:43:50;16.00;99.90
62339;DHT22;48368;53.406;6.214;2022-09-01T22:46:18;16.00;99.90
62339;DHT22;48368;53.406;6.214;2022-09-01T22:48:44;15.90;99.90
62339;DHT22;48368;53.406;6.214;2022-09-01T22:51:12;15.90;99.90
62339;DHT22;48368;53.406;6.214;2022-09-01T22:53:39;15.90;99.90